sensor_id;sensor_type;location;lat;lon;timestamp;pressure;altitude;pressure_sealevel;temperature;humidity
37904;BME280;23738;50.422;18.758;2024-01-07T00:02:28;97918.63;;;-0.89;98.93
37904;BME280;23738;50.422;18.758;2024-01-07T00:04:59;97917.82;;;-0.91;98.81
37904;BME280;23738;50.422;18.758;2024-01-07T00:07:30;97918.26;;;-0.94;98.86
37904;BME280;23738;50.422;18.758;2024-01-07T00:10:00;97919.67;;;-0.93;98.95
37904;BME280;23738;50.422;18.758;2024-01-07T00:12:30;97917.02;;;-0.92;98.84
37904;BME280;23738;50.422;18.758;2024-01-07T00:15:00;97919.92;;;-0.95;98.65
37904;BME280;23738;50.422;18.758;2024-01-07T00:17:30;97921.15;;;-0.99;98.66
37904;BME280;23738;50.422;18.758;2024-01-07T00:20:00;97925.80;;;-1.04;98.51
37904;BME280;23738;50.422;18.758;2024-01-07T00:22:30;97919.70;;;-1.10;98.55
37904;BME280;23738;50.422;18.758;2024-01-07T00:25:00;97930.51;;;-1.07;98.61
37904;BME280;23738;50.422;18.758;2024-01-07T00:27:29;97932.69;;;-1.06;98.55
37904;BME280;23738;50.422;18.758;2024-01-07T00:29:59;97937.90;;;-1.06;98.61
37904;BME280;23738;50.422;18.758;2024-01-07T00:32:29;97937.17;;;-1.10;98.50
37904;BME280;23738;50.422;18.758;2024-01-07T00:34:59;97938.44;;;-1.14;98.44
37904;BME280;23738;50.422;18.758;2024-01-07T00:37:29;97938.94;;;-1.20;98.47
37904;BME280;23738;50.422;18.758;2024-01-07T00:39:59;97938.33;;;-1.22;98.51
37904;BME280;23738;50.422;18.758;2024-01-07T00:42:28;97940.89;;;-1.22;98.50
37904;BME280;23738;50.422;18.758;2024-01-07T00:44:58;97941.92;;;-1.24;98.24
37904;BME280;23738;50.422;18.758;2024-01-07T00:47:28;97941.35;;;-1.25;98.33
37904;BME280;23738;50.422;18.758;2024-01-07T00:49:58;97950.54;;;-1.26;98.32
37904;BME280;23738;50.422;18.758;2024-01-07T00:52:28;97950.25;;;-1.28;98.32
37904;BME280;23738;50.422;18.758;2024-01-07T00:54:58;97956.75;;;-1.31;98.38
37904;BME280;23738;50.422;18.758;2024-01-07T00:57:29;97954.27;;;-1.34;98.50
37904;BME280;23738;50.422;18.758;2024-01-07T01:00:00;97959.33;;;-1.36;98.48
37904;BME280;23738;50.422;18.758;2024-01-07T01:02:34;97957.67;;;-1.34;98.39
37904;BME280;23738;50.422;18.758;2024-01-07T01:05:05;97962.29;;;-1.35;98.08
37904;BME280;23738;50.422;18.758;2024-01-07T01:07:35;97961.86;;;-1.38;97.98
37904;BME280;23738;50.422;18.758;2024-01-07T01:10:07;97957.69;;;-1.41;97.96
37904;BME280;23738;50.422;18.758;2024-01-07T01:12:37;97968.09;;;-1.43;98.03
37904;BME280;23738;50.422;18.758;2024-01-07T01:15:09;97963.23;;;-1.47;97.88
37904;BME280;23738;50.422;18.758;2024-01-07T01:17:38;97963.44;;;-1.50;98.15
37904;BME280;23738;50.422;18.758;2024-01-07T01:20:10;97964.36;;;-1.50;97.98
37904;BME280;23738;50.422;18.758;2024-01-07T01:22:40;97962.68;;;-1.51;98.06
37904;BME280;23738;50.422;18.758;2024-01-07T01:25:10;97964.34;;;-1.50;98.05
37904;BME280;23738;50.422;18.758;2024-01-07T01:27:40;97968.54;;;-1.52;98.07
37904;BME280;23738;50.422;18.758;2024-01-07T01:30:12;97969.98;;;-1.53;98.03
37904;BME280;23738;50.422;18.758;2024-01-07T01:32:42;97966.91;;;-1.58;98.14
37904;BME280;23738;50.422;18.758;2024-01-07T01:35:12;97973.48;;;-1.60;98.07
37904;BME280;23738;50.422;18.758;2024-01-07T01:37:42;97974.80;;;-1.61;97.87
37904;BME280;23738;50.422;18.758;2024-01-07T01:40:15;97973.66;;;-1.63;97.79
37904;BME280;23738;50.422;18.758;2024-01-07T01:42:45;97975.52;;;-1.63;97.68
37904;BME280;23738;50.422;18.758;2024-01-07T01:45:16;97976.23;;;-1.63;97.92
37904;BME280;23738;50.422;18.758;2024-01-07T01:47:47;97976.10;;;-1.64;98.03
37904;BME280;23738;50.422;18.758;2024-01-07T01:50:18;97973.16;;;-1.66;98.00
37904;BME280;23738;50.422;18.758;2024-01-07T01:52:48;97976.48;;;-1.70;97.73
37904;BME280;23738;50.422;18.758;2024-01-07T01:55:19;97977.66;;;-1.72;97.64
37904;BME280;23738;50.422;18.758;2024-01-07T01:58:19;97979.57;;;-1.72;97.79
37904;BME280;23738;50.422;18.758;2024-01-07T02:00:49;97983.21;;;-1.72;97.64
37904;BME280;23738;50.422;18.758;2024-01-07T02:03:19;97983.73;;;-1.72;97.79
37904;BME280;23738;50.422;18.758;2024-01-07T02:05:51;97983.48;;;-1.75;97.54
37904;BME280;23738;50.422;18.758;2024-01-07T02:08:22;97983.38;;;-1.79;97.68
37904;BME280;23738;50.422;18.758;2024-01-07T02:10:52;97982.63;;;-1.85;97.66
37904;BME280;23738;50.422;18.758;2024-01-07T02:13:23;97988.36;;;-1.87;97.51
37904;BME280;23738;50.422;18.758;2024-01-07T02:15:53;97991.35;;;-1.87;97.41
37904;BME280;23738;50.422;18.758;2024-01-07T02:18:23;97994.16;;;-1.88;97.38
37904;BME280;23738;50.422;18.758;2024-01-07T02:20:53;97988.78;;;-1.90;97.08
37904;BME280;23738;50.422;18.758;2024-01-07T02:23:23;97992.91;;;-1.93;97.14
37904;BME280;23738;50.422;18.758;2024-01-07T02:25:53;97992.66;;;-1.96;97.33
37904;BME280;23738;50.422;18.758;2024-01-07T02:28:22;97989.92;;;-1.99;97.23
37904;BME280;23738;50.422;18.758;2024-01-07T02:30:52;97993.36;;;-2.03;97.25
37904;BME280;23738;50.422;18.758;2024-01-07T02:33:22;97991.59;;;-2.06;97.41
37904;BME280;23738;50.422;18.758;2024-01-07T02:35:52;97994.53;;;-2.06;97.32
37904;BME280;23738;50.422;18.758;2024-01-07T02:38:22;97996.61;;;-2.04;97.30
37904;BME280;23738;50.422;18.758;2024-01-07T02:40:51;97994.53;;;-2.02;97.41
37904;BME280;23738;50.422;18.758;2024-01-07T02:43:21;97995.85;;;-2.03;97.07
37904;BME280;23738;50.422;18.758;2024-01-07T02:45:51;97996.58;;;-2.06;97.24
37904;BME280;23738;50.422;18.758;2024-01-07T02:48:21;97993.38;;;-2.09;97.30
37904;BME280;23738;50.422;18.758;2024-01-07T02:50:51;97997.29;;;-2.12;97.19
37904;BME280;23738;50.422;18.758;2024-01-07T02:53:21;98000.94;;;-2.14;97.22
37904;BME280;23738;50.422;18.758;2024-01-07T02:55:50;98000.22;;;-2.16;97.20
37904;BME280;23738;50.422;18.758;2024-01-07T02:58:20;98002.48;;;-2.14;97.05
37904;BME280;23738;50.422;18.758;2024-01-07T03:00:50;98003.73;;;-2.12;97.16
37904;BME280;23738;50.422;18.758;2024-01-07T03:03:20;98005.14;;;-2.15;96.89
37904;BME280;23738;50.422;18.758;2024-01-07T03:05:50;98002.20;;;-2.20;96.83
37904;BME280;23738;50.422;18.758;2024-01-07T03:08:20;98001.80;;;-2.22;97.04
37904;BME280;23738;50.422;18.758;2024-01-07T03:10:50;98002.13;;;-2.26;96.93
37904;BME280;23738;50.422;18.758;2024-01-07T03:13:20;98003.27;;;-2.31;96.97
37904;BME280;23738;50.422;18.758;2024-01-07T03:15:50;98005.95;;;-2.37;96.86
37904;BME280;23738;50.422;18.758;2024-01-07T03:18:19;98006.89;;;-2.37;96.78
37904;BME280;23738;50.422;18.758;2024-01-07T03:20:49;98002.91;;;-2.35;96.88
37904;BME280;23738;50.422;18.758;2024-01-07T03:23:19;98005.83;;;-2.35;96.63
37904;BME280;23738;50.422;18.758;2024-01-07T03:25:49;98000.70;;;-2.35;96.88
37904;BME280;23738;50.422;18.758;2024-01-07T03:28:19;98004.20;;;-2.30;97.23
37904;BME280;23738;50.422;18.758;2024-01-07T03:30:49;98006.15;;;-2.32;97.01
37904;BME280;23738;50.422;18.758;2024-01-07T03:33:19;98008.38;;;-2.37;96.88
37904;BME280;23738;50.422;18.758;2024-01-07T03:35:48;98006.77;;;-2.42;96.85
37904;BME280;23738;50.422;18.758;2024-01-07T03:38:18;98012.59;;;-2.45;96.86
37904;BME280;23738;50.422;18.758;2024-01-07T03:40:48;98013.54;;;-2.46;96.73
37904;BME280;23738;50.422;18.758;2024-01-07T03:43:18;98015.37;;;-2.46;96.53
37904;BME280;23738;50.422;18.758;2024-01-07T03:45:48;98016.51;;;-2.47;96.56
37904;BME280;23738;50.422;18.758;2024-01-07T03:48:18;98017.18;;;-2.47;96.75
37904;BME280;23738;50.422;18.758;2024-01-07T03:50:48;98021.77;;;-2.48;96.76
37904;BME280;23738;50.422;18.758;2024-01-07T03:53:18;98023.20;;;-2.50;96.64
37904;BME280;23738;50.422;18.758;2024-01-07T03:55:48;98025.27;;;-2.52;96.74
37904;BME280;23738;50.422;18.758;2024-01-07T03:58:18;98023.80;;;-2.53;96.83
37904;BME280;23738;50.422;18.758;2024-01-07T04:00:48;98027.27;;;-2.54;96.57
37904;BME280;23738;50.422;18.758;2024-01-07T04:03:18;98029.70;;;-2.54;96.55
37904;BME280;23738;50.422;18.758;2024-01-07T04:05:48;98034.10;;;-2.53;96.51
37904;BME280;23738;50.422;18.758;2024-01-07T04:08:18;98036.41;;;-2.53;96.56
37904;BME280;23738;50.422;18.758;2024-01-07T04:10:48;98035.85;;;-2.55;96.38
37904;BME280;23738;50.422;18.758;2024-01-07T04:13:18;98036.00;;;-2.61;96.15
37904;BME280;23738;50.422;18.758;2024-01-07T04:15:49;98036.26;;;-2.68;96.00
37904;BME280;23738;50.422;18.758;2024-01-07T04:18:18;98032.89;;;-2.73;96.22
37904;BME280;23738;50.422;18.758;2024-01-07T04:20:48;98032.20;;;-2.75;96.18
37904;BME280;23738;50.422;18.758;2024-01-07T04:23:18;98034.30;;;-2.71;96.14
37904;BME280;23738;50.422;18.758;2024-01-07T04:25:48;98034.80;;;-2.67;96.44
37904;BME280;23738;50.422;18.758;2024-01-07T04:28:18;98034.58;;;-2.64;96.40
37904;BME280;23738;50.422;18.758;2024-01-07T04:30:48;98035.97;;;-2.64;96.39
37904;BME280;23738;50.422;18.758;2024-01-07T04:33:18;98041.95;;;-2.68;96.30
37904;BME280;23738;50.422;18.758;2024-01-07T04:35:48;98050.99;;;-2.73;96.34
37904;BME280;23738;50.422;18.758;2024-01-07T04:38:18;98052.50;;;-2.79;96.16
37904;BME280;23738;50.422;18.758;2024-01-07T04:40:48;98056.06;;;-2.78;96.28
37904;BME280;23738;50.422;18.758;2024-01-07T04:43:18;98059.02;;;-2.76;96.07
37904;BME280;23738;50.422;18.758;2024-01-07T04:45:47;98060.65;;;-2.77;96.04
37904;BME280;23738;50.422;18.758;2024-01-07T04:48:17;98061.72;;;-2.82;95.92
37904;BME280;23738;50.422;18.758;2024-01-07T04:50:47;98066.77;;;-2.85;95.82
37904;BME280;23738;50.422;18.758;2024-01-07T04:53:17;98066.02;;;-2.90;95.84
37904;BME280;23738;50.422;18.758;2024-01-07T04:55:47;98066.30;;;-2.93;95.81
37904;BME280;23738;50.422;18.758;2024-01-07T04:58:17;98068.09;;;-2.96;95.79
37904;BME280;23738;50.422;18.758;2024-01-07T05:00:47;98076.14;;;-2.93;95.84
37904;BME280;23738;50.422;18.758;2024-01-07T05:03:16;98075.88;;;-2.92;95.93
37904;BME280;23738;50.422;18.758;2024-01-07T05:05:46;98075.77;;;-2.93;95.87
37904;BME280;23738;50.422;18.758;2024-01-07T05:08:16;98072.32;;;-2.93;95.97
37904;BME280;23738;50.422;18.758;2024-01-07T05:10:46;98072.90;;;-2.96;95.89
37904;BME280;23738;50.422;18.758;2024-01-07T05:13:16;98073.83;;;-3.01;95.82
37904;BME280;23738;50.422;18.758;2024-01-07T05:15:46;98079.80;;;-3.02;95.79
37904;BME280;23738;50.422;18.758;2024-01-07T05:18:22;98083.55;;;-3.02;95.98
37904;BME280;23738;50.422;18.758;2024-01-07T05:20:52;98083.81;;;-3.01;95.75
37904;BME280;23738;50.422;18.758;2024-01-07T05:23:22;98088.95;;;-3.02;95.60
37904;BME280;23738;50.422;18.758;2024-01-07T05:25:52;98093.64;;;-3.05;95.70
37904;BME280;23738;50.422;18.758;2024-01-07T05:28:22;98094.04;;;-3.10;95.53
37904;BME280;23738;50.422;18.758;2024-01-07T05:30:52;98093.23;;;-3.15;95.44
37904;BME280;23738;50.422;18.758;2024-01-07T05:33:22;98095.64;;;-3.17;95.49
37904;BME280;23738;50.422;18.758;2024-01-07T05:35:52;98093.24;;;-3.17;95.46
37904;BME280;23738;50.422;18.758;2024-01-07T05:38:21;98099.83;;;-3.18;95.49
37904;BME280;23738;50.422;18.758;2024-01-07T05:40:51;98101.44;;;-3.21;95.42
37904;BME280;23738;50.422;18.758;2024-01-07T05:43:21;98098.08;;;-3.24;95.45
37904;BME280;23738;50.422;18.758;2024-01-07T05:45:51;98100.60;;;-3.25;95.70
37904;BME280;23738;50.422;18.758;2024-01-07T05:48:22;98100.86;;;-3.26;95.80
37904;BME280;23738;50.422;18.758;2024-01-07T05:50:52;98102.55;;;-3.26;95.74
37904;BME280;23738;50.422;18.758;2024-01-07T05:53:22;98106.83;;;-3.30;95.52
37904;BME280;23738;50.422;18.758;2024-01-07T05:55:52;98107.09;;;-3.28;95.56
37904;BME280;23738;50.422;18.758;2024-01-07T05:58:22;98110.41;;;-3.27;95.58
37904;BME280;23738;50.422;18.758;2024-01-07T06:00:52;98114.99;;;-3.24;95.59
37904;BME280;23738;50.422;18.758;2024-01-07T06:03:22;98117.36;;;-3.22;95.63
37904;BME280;23738;50.422;18.758;2024-01-07T06:05:52;98118.31;;;-3.20;95.70
37904;BME280;23738;50.422;18.758;2024-01-07T06:08:22;98117.34;;;-3.21;95.61
37904;BME280;23738;50.422;18.758;2024-01-07T06:10:52;98122.77;;;-3.24;95.55
37904;BME280;23738;50.422;18.758;2024-01-07T06:13:22;98126.39;;;-3.29;95.50
37904;BME280;23738;50.422;18.758;2024-01-07T06:15:51;98132.02;;;-3.30;95.54
37904;BME280;23738;50.422;18.758;2024-01-07T06:18:21;98129.52;;;-3.31;95.45
37904;BME280;23738;50.422;18.758;2024-01-07T06:20:51;98134.14;;;-3.31;95.39
37904;BME280;23738;50.422;18.758;2024-01-07T06:23:21;98137.20;;;-3.30;95.38
37904;BME280;23738;50.422;18.758;2024-01-07T06:25:51;98139.73;;;-3.30;95.44
37904;BME280;23738;50.422;18.758;2024-01-07T06:28:20;98142.01;;;-3.30;95.37
37904;BME280;23738;50.422;18.758;2024-01-07T06:30:50;98145.80;;;-3.33;95.49
37904;BME280;23738;50.422;18.758;2024-01-07T06:33:21;98152.36;;;-3.35;95.55
37904;BME280;23738;50.422;18.758;2024-01-07T06:35:51;98148.04;;;-3.35;95.53
37904;BME280;23738;50.422;18.758;2024-01-07T06:38:21;98151.36;;;-3.33;95.38
37904;BME280;23738;50.422;18.758;2024-01-07T06:40:52;98157.46;;;-3.32;95.41
37904;BME280;23738;50.422;18.758;2024-01-07T06:43:22;98156.45;;;-3.34;95.40
37904;BME280;23738;50.422;18.758;2024-01-07T06:45:52;98156.96;;;-3.36;95.21
37904;BME280;23738;50.422;18.758;2024-01-07T06:48:22;98158.30;;;-3.38;95.35
37904;BME280;23738;50.422;18.758;2024-01-07T06:50:52;98163.35;;;-3.39;95.50
37904;BME280;23738;50.422;18.758;2024-01-07T06:53:22;98167.29;;;-3.38;95.57
37904;BME280;23738;50.422;18.758;2024-01-07T06:55:51;98174.52;;;-3.41;95.65
37904;BME280;23738;50.422;18.758;2024-01-07T06:58:21;98173.52;;;-3.43;95.44
37904;BME280;23738;50.422;18.758;2024-01-07T07:00:51;98175.35;;;-3.42;95.43
37904;BME280;23738;50.422;18.758;2024-01-07T07:03:21;98174.95;;;-3.39;95.34
37904;BME280;23738;50.422;18.758;2024-01-07T07:05:51;98179.86;;;-3.38;95.30
37904;BME280;23738;50.422;18.758;2024-01-07T07:08:21;98176.86;;;-3.35;95.45
37904;BME280;23738;50.422;18.758;2024-01-07T07:10:51;98183.98;;;-3.36;95.24
37904;BME280;23738;50.422;18.758;2024-01-07T07:13:21;98181.83;;;-3.39;95.31
37904;BME280;23738;50.422;18.758;2024-01-07T07:15:51;98183.80;;;-3.42;95.24
37904;BME280;23738;50.422;18.758;2024-01-07T07:18:20;98186.05;;;-3.47;95.30
37904;BME280;23738;50.422;18.758;2024-01-07T07:20:50;98183.18;;;-3.50;95.22
37904;BME280;23738;50.422;18.758;2024-01-07T07:23:20;98182.10;;;-3.49;95.23
37904;BME280;23738;50.422;18.758;2024-01-07T07:25:50;98189.40;;;-3.46;95.31
37904;BME280;23738;50.422;18.758;2024-01-07T07:28:20;98192.19;;;-3.42;95.20
37904;BME280;23738;50.422;18.758;2024-01-07T07:30:50;98196.13;;;-3.39;95.25
37904;BME280;23738;50.422;18.758;2024-01-07T07:33:20;98194.80;;;-3.38;95.32
37904;BME280;23738;50.422;18.758;2024-01-07T07:35:50;98195.86;;;-3.40;95.15
37904;BME280;23738;50.422;18.758;2024-01-07T07:38:20;98195.31;;;-3.44;95.13
37904;BME280;23738;50.422;18.758;2024-01-07T07:40:50;98196.52;;;-3.47;95.07
37904;BME280;23738;50.422;18.758;2024-01-07T07:43:21;98201.30;;;-3.46;95.01
37904;BME280;23738;50.422;18.758;2024-01-07T07:45:51;98201.95;;;-3.43;95.05
37904;BME280;23738;50.422;18.758;2024-01-07T07:48:21;98207.04;;;-3.40;95.11
37904;BME280;23738;50.422;18.758;2024-01-07T07:50:51;98206.79;;;-3.39;95.06
37904;BME280;23738;50.422;18.758;2024-01-07T07:53:21;98208.00;;;-3.39;95.06
37904;BME280;23738;50.422;18.758;2024-01-07T07:55:51;98209.22;;;-3.42;94.90
37904;BME280;23738;50.422;18.758;2024-01-07T07:58:21;98208.45;;;-3.45;94.94
37904;BME280;23738;50.422;18.758;2024-01-07T08:00:51;98209.71;;;-3.45;95.01
37904;BME280;23738;50.422;18.758;2024-01-07T08:03:20;98213.43;;;-3.42;95.01
37904;BME280;23738;50.422;18.758;2024-01-07T08:05:50;98212.11;;;-3.37;95.22
37904;BME280;23738;50.422;18.758;2024-01-07T08:08:20;98216.15;;;-3.31;95.20
37904;BME280;23738;50.422;18.758;2024-01-07T08:10:50;98221.61;;;-3.31;95.00
37904;BME280;23738;50.422;18.758;2024-01-07T08:13:20;98220.77;;;-3.31;95.07
37904;BME280;23738;50.422;18.758;2024-01-07T08:15:50;98228.61;;;-3.30;95.09
37904;BME280;23738;50.422;18.758;2024-01-07T08:18:20;98226.17;;;-3.34;95.14
37904;BME280;23738;50.422;18.758;2024-01-07T08:20:50;98231.90;;;-3.30;95.12
37904;BME280;23738;50.422;18.758;2024-01-07T08:23:19;98236.92;;;-3.26;95.29
37904;BME280;23738;50.422;18.758;2024-01-07T08:25:49;98243.36;;;-3.21;95.16
37904;BME280;23738;50.422;18.758;2024-01-07T08:28:19;98241.24;;;-3.18;95.05
37904;BME280;23738;50.422;18.758;2024-01-07T08:30:50;98243.30;;;-3.16;95.00
37904;BME280;23738;50.422;18.758;2024-01-07T08:33:21;98245.40;;;-3.16;94.87
37904;BME280;23738;50.422;18.758;2024-01-07T08:35:51;98248.14;;;-3.18;94.92
37904;BME280;23738;50.422;18.758;2024-01-07T08:38:21;98254.58;;;-3.19;95.10
37904;BME280;23738;50.422;18.758;2024-01-07T08:40:51;98257.65;;;-3.19;95.04
37904;BME280;23738;50.422;18.758;2024-01-07T08:43:21;98259.59;;;-3.17;94.99
37904;BME280;23738;50.422;18.758;2024-01-07T08:45:51;98260.69;;;-3.13;95.25
37904;BME280;23738;50.422;18.758;2024-01-07T08:48:21;98263.11;;;-3.07;94.90
37904;BME280;23738;50.422;18.758;2024-01-07T08:50:50;98263.36;;;-3.01;95.07
37904;BME280;23738;50.422;18.758;2024-01-07T08:53:20;98264.68;;;-2.94;95.26
37904;BME280;23738;50.422;18.758;2024-01-07T08:55:50;98263.64;;;-2.91;95.02
37904;BME280;23738;50.422;18.758;2024-01-07T08:58:22;98263.55;;;-2.93;95.04
37904;BME280;23738;50.422;18.758;2024-01-07T09:00:52;98266.49;;;-2.95;94.92
37904;BME280;23738;50.422;18.758;2024-01-07T09:03:22;98268.41;;;-2.93;95.00
37904;BME280;23738;50.422;18.758;2024-01-07T09:05:52;98270.94;;;-2.90;94.92
37904;BME280;23738;50.422;18.758;2024-01-07T09:08:22;98276.20;;;-2.87;94.79
37904;BME280;23738;50.422;18.758;2024-01-07T09:10:52;98276.10;;;-2.84;94.80
37904;BME280;23738;50.422;18.758;2024-01-07T09:13:21;98278.52;;;-2.80;94.98
37904;BME280;23738;50.422;18.758;2024-01-07T09:15:51;98278.85;;;-2.77;95.01
37904;BME280;23738;50.422;18.758;2024-01-07T09:18:21;98275.92;;;-2.77;94.95
37904;BME280;23738;50.422;18.758;2024-01-07T09:20:51;98276.95;;;-2.75;94.78
37904;BME280;23738;50.422;18.758;2024-01-07T09:23:21;98275.94;;;-2.75;94.86
37904;BME280;23738;50.422;18.758;2024-01-07T09:25:51;98273.19;;;-2.69;94.77
37904;BME280;23738;50.422;18.758;2024-01-07T09:28:21;98272.17;;;-2.65;94.93
37904;BME280;23738;50.422;18.758;2024-01-07T09:30:51;98274.05;;;-2.60;94.62
37904;BME280;23738;50.422;18.758;2024-01-07T09:33:21;98273.92;;;-2.63;94.33
37904;BME280;23738;50.422;18.758;2024-01-07T09:35:52;98272.66;;;-2.62;94.43
37904;BME280;23738;50.422;18.758;2024-01-07T09:38:22;98275.30;;;-2.61;94.58
37904;BME280;23738;50.422;18.758;2024-01-07T09:40:53;98282.53;;;-2.56;94.97
37904;BME280;23738;50.422;18.758;2024-01-07T09:43:23;98283.92;;;-2.50;94.77
37904;BME280;23738;50.422;18.758;2024-01-07T09:45:55;98283.23;;;-2.44;94.67
37904;BME280;23738;50.422;18.758;2024-01-07T09:48:26;98280.39;;;-2.41;94.44
37904;BME280;23738;50.422;18.758;2024-01-07T09:50:56;98277.71;;;-2.40;94.46
37904;BME280;23738;50.422;18.758;2024-01-07T09:53:29;98279.58;;;-2.42;94.16
37904;BME280;23738;50.422;18.758;2024-01-07T09:56:04;98277.42;;;-2.40;94.53
37904;BME280;23738;50.422;18.758;2024-01-07T09:58:37;98271.40;;;-2.41;94.29
37904;BME280;23738;50.422;18.758;2024-01-07T10:01:06;98272.98;;;-2.39;94.19
37904;BME280;23738;50.422;18.758;2024-01-07T10:03:37;98274.34;;;-2.32;94.55
37904;BME280;23738;50.422;18.758;2024-01-07T10:06:07;98270.83;;;-2.27;94.43
37904;BME280;23738;50.422;18.758;2024-01-07T10:08:37;98268.21;;;-2.23;94.40
37904;BME280;23738;50.422;18.758;2024-01-07T10:11:06;98266.91;;;-2.20;94.30
37904;BME280;23738;50.422;18.758;2024-01-07T10:13:37;98257.08;;;-2.19;94.41
37904;BME280;23738;50.422;18.758;2024-01-07T10:16:08;98257.59;;;-2.15;94.37
37904;BME280;23738;50.422;18.758;2024-01-07T10:18:38;98256.98;;;-2.14;94.52
37904;BME280;23738;50.422;18.758;2024-01-07T10:21:09;98256.41;;;-2.09;94.70
37904;BME280;23738;50.422;18.758;2024-01-07T10:23:39;98256.70;;;-2.05;94.75
37904;BME280;23738;50.422;18.758;2024-01-07T10:26:08;98250.17;;;-2.01;94.59
37904;BME280;23738;50.422;18.758;2024-01-07T10:28:39;98254.08;;;-2.00;94.06
37904;BME280;23738;50.422;18.758;2024-01-07T10:31:09;98254.09;;;-2.00;93.96
37904;BME280;23738;50.422;18.758;2024-01-07T10:33:40;98257.52;;;-2.02;93.89
37904;BME280;23738;50.422;18.758;2024-01-07T10:36:11;98260.48;;;-2.00;93.98
37904;BME280;23738;50.422;18.758;2024-01-07T10:38:41;98261.64;;;-2.02;93.94
37904;BME280;23738;50.422;18.758;2024-01-07T10:41:12;98259.03;;;-2.04;94.09
37904;BME280;23738;50.422;18.758;2024-01-07T10:43:47;98263.05;;;-2.07;93.69
37904;BME280;23738;50.422;18.758;2024-01-07T10:46:18;98267.55;;;-2.10;93.77
37904;BME280;23738;50.422;18.758;2024-01-07T10:48:53;98265.52;;;-2.09;94.04
37904;BME280;23738;50.422;18.758;2024-01-07T10:51:24;98265.29;;;-2.04;93.54
37904;BME280;23738;50.422;18.758;2024-01-07T10:53:57;98267.17;;;-2.02;93.22
37904;BME280;23738;50.422;18.758;2024-01-07T10:56:37;98264.27;;;-2.04;93.09
37904;BME280;23738;50.422;18.758;2024-01-07T10:59:08;98267.86;;;-2.04;93.16
37904;BME280;23738;50.422;18.758;2024-01-07T11:01:38;98263.25;;;-2.04;93.45
37904;BME280;23738;50.422;18.758;2024-01-07T11:04:13;98264.47;;;-2.05;93.09
37904;BME280;23738;50.422;18.758;2024-01-07T11:06:49;98268.00;;;-2.06;93.30
37904;BME280;23738;50.422;18.758;2024-01-07T11:09:26;98268.08;;;-2.07;92.98
37904;BME280;23738;50.422;18.758;2024-01-07T11:12:00;98268.58;;;-2.02;93.59
37904;BME280;23738;50.422;18.758;2024-01-07T11:14:40;98275.22;;;-1.93;93.58
37904;BME280;23738;50.422;18.758;2024-01-07T11:17:13;98272.86;;;-1.89;93.15
37904;BME280;23738;50.422;18.758;2024-01-07T11:19:52;98274.12;;;-1.88;93.26
37904;BME280;23738;50.422;18.758;2024-01-07T11:22:26;98274.48;;;-1.88;92.80
37904;BME280;23738;50.422;18.758;2024-01-07T11:24:57;98270.46;;;-1.90;92.95
37904;BME280;23738;50.422;18.758;2024-01-07T11:27:30;98269.43;;;-1.92;92.79
37904;BME280;23738;50.422;18.758;2024-01-07T11:30:07;98269.50;;;-1.95;93.19
37904;BME280;23738;50.422;18.758;2024-01-07T11:32:47;98273.33;;;-1.93;92.77
37904;BME280;23738;50.422;18.758;2024-01-07T11:35:23;98270.08;;;-1.91;93.01
37904;BME280;23738;50.422;18.758;2024-01-07T11:38:12;98268.48;;;-1.82;93.20
37904;BME280;23738;50.422;18.758;2024-01-07T11:40:42;98271.23;;;-1.80;92.91
37904;BME280;23738;50.422;18.758;2024-01-07T11:43:13;98270.21;;;-1.84;92.37
37904;BME280;23738;50.422;18.758;2024-01-07T11:45:42;98272.11;;;-1.89;92.80
37904;BME280;23738;50.422;18.758;2024-01-07T11:48:12;98273.02;;;-1.89;92.63
37904;BME280;23738;50.422;18.758;2024-01-07T11:50:42;98272.09;;;-1.88;92.82
37904;BME280;23738;50.422;18.758;2024-01-07T11:53:14;98274.62;;;-1.86;92.64
37904;BME280;23738;50.422;18.758;2024-01-07T11:55:46;98272.52;;;-1.85;91.70
37904;BME280;23738;50.422;18.758;2024-01-07T11:58:16;98275.98;;;-1.87;91.87
37904;BME280;23738;50.422;18.758;2024-01-07T12:00:45;98281.27;;;-1.93;91.08
37904;BME280;23738;50.422;18.758;2024-01-07T12:03:15;98278.71;;;-2.02;91.47
37904;BME280;23738;50.422;18.758;2024-01-07T12:05:46;98275.62;;;-2.04;91.91
37904;BME280;23738;50.422;18.758;2024-01-07T12:08:17;98275.45;;;-2.06;91.73
37904;BME280;23738;50.422;18.758;2024-01-07T12:10:49;98278.22;;;-2.08;91.96
37904;BME280;23738;50.422;18.758;2024-01-07T12:13:20;98280.41;;;-2.08;91.71
37904;BME280;23738;50.422;18.758;2024-01-07T12:15:50;98277.20;;;-2.07;91.94
37904;BME280;23738;50.422;18.758;2024-01-07T12:18:21;98279.10;;;-2.04;91.54
37904;BME280;23738;50.422;18.758;2024-01-07T12:20:59;98279.25;;;-2.08;91.43
37904;BME280;23738;50.422;18.758;2024-01-07T12:23:33;98280.70;;;-2.11;91.45
37904;BME280;23738;50.422;18.758;2024-01-07T12:26:10;98283.31;;;-2.13;91.37
37904;BME280;23738;50.422;18.758;2024-01-07T12:28:41;98284.51;;;-2.17;91.53
37904;BME280;23738;50.422;18.758;2024-01-07T12:31:10;98284.81;;;-2.15;91.86
37904;BME280;23738;50.422;18.758;2024-01-07T12:33:40;98285.30;;;-2.12;91.73
37904;BME280;23738;50.422;18.758;2024-01-07T12:36:10;98285.23;;;-2.11;91.58
37904;BME280;23738;50.422;18.758;2024-01-07T12:38:40;98282.83;;;-2.09;91.57
37904;BME280;23738;50.422;18.758;2024-01-07T12:41:09;98284.33;;;-2.11;91.23
37904;BME280;23738;50.422;18.758;2024-01-07T12:43:40;98286.98;;;-2.12;91.09
37904;BME280;23738;50.422;18.758;2024-01-07T12:46:09;98287.85;;;-2.16;91.17
37904;BME280;23738;50.422;18.758;2024-01-07T12:48:39;98290.67;;;-2.21;91.14
37904;BME280;23738;50.422;18.758;2024-01-07T12:51:09;98295.77;;;-2.22;91.32
37904;BME280;23738;50.422;18.758;2024-01-07T12:53:39;98299.40;;;-2.20;91.07
37904;BME280;23738;50.422;18.758;2024-01-07T12:56:09;98300.92;;;-2.24;90.67
37904;BME280;23738;50.422;18.758;2024-01-07T12:58:40;98298.62;;;-2.25;90.64
37904;BME280;23738;50.422;18.758;2024-01-07T13:01:10;98304.65;;;-2.32;90.18
37904;BME280;23738;50.422;18.758;2024-01-07T13:03:40;98306.25;;;-2.41;90.21
37904;BME280;23738;50.422;18.758;2024-01-07T13:06:10;98315.77;;;-2.48;90.31
37904;BME280;23738;50.422;18.758;2024-01-07T13:08:40;98322.09;;;-2.55;90.21